Tafalla, Spain
Current Conditions -  °F | °C
As of 7:00 PM on Sunday 21 Dec 2014 (Local Time) from LEPP Reporting Station
Clear Clear  
Wind Chill: 41°   Ceiling: Unl
Heat Index: 45°   Visibility: 6mi
Dew Point: 37°   Wind: 7mph
Humidity: 76%   Direction: 330°NNW
Pressure: 30.5"   Gusts: NA
Location:  42.53°N, 1.67°W
Report Text: LEPP 211800Z 33006KT CAVOK 07/03 Q1033
Loading
Personal Weather Stations






























Interactive Weather Map New forecast layout! Learn more

10-Day Weather Forecast

Advertisements
Track Severe Weather on mobile